Time;durP1;ratioP1;P1;durP2;ratioP2;P2;SDS_P1;SDS_P2;PMS_P1;PMS_P2;Temp;Humidity;BMP_temperature;BMP_pressure;BME280_temperature;BME280_humidity;BME280_pressure;Samples;Min_cycle;Max_cycle;Signal;HPM_P1;HPM_P2
2023/12/28 00:00:50;;;;;;;14.10;13.50;;;6.20;99.90;;;;;;5092554;28;20208;-81
2023/12/28 00:03:16;;;;;;;0.30;0.20;;;6.10;99.90;;;;;;5093343;28;20221;-81
2023/12/28 00:05:42;;;;;;;0.30;0.20;;;6.00;99.90;;;;;;5092587;28;20834;-78
2023/12/28 00:08:07;;;;;;;0.30;0.20;;;6.00;99.90;;;;;;5092644;28;20196;-78
2023/12/28 00:10:33;;;;;;;0.30;0.20;;;6.00;99.90;;;;;;5091296;28;20558;-78
2023/12/28 00:12:59;;;;;;;0.30;0.20;;;6.00;99.90;;;;;;5092682;28;20199;-78
2023/12/28 00:15:24;;;;;;;0.30;0.20;;;6.10;99.90;;;;;;5092490;28;20687;-80
2023/12/28 00:17:50;;;;;;;0.30;0.20;;;6.10;99.90;;;;;;5090082;28;20273;-81
2023/12/28 00:20:16;;;;;;;0.30;0.20;;;6.10;99.90;;;;;;5108289;28;20188;-81
2023/12/28 00:22:42;;;;;;;0.30;0.20;;;6.10;99.90;;;;;;5092671;28;20642;-79
2023/12/28 00:25:07;;;;;;;0.30;0.20;;;6.10;99.90;;;;;;5093052;28;20391;-80
2023/12/28 00:27:37;;;;;;;0.30;0.20;;;6.10;99.90;;;;;;5091035;28;20424;-81
2023/12/28 00:30:07;;;;;;;0.30;0.20;;;6.10;99.90;;;;;;5092324;28;20179;-78
2023/12/28 00:32:33;;;;;;;0.30;0.20;;;6.10;99.90;;;;;;5090634;28;20692;-78
2023/12/28 00:34:59;;;;;;;0.30;0.30;;;6.10;99.90;;;;;;5092109;28;20173;-81
2023/12/28 00:37:25;;;;;;;0.30;0.20;;;6.10;99.90;;;;;;5092290;28;20251;-78
2023/12/28 00:39:50;;;;;;;0.30;0.20;;;6.10;99.90;;;;;;5092147;28;20258;-81
2023/12/28 00:42:17;;;;;;;0.30;0.20;;;6.10;99.90;;;;;;5092440;28;20216;-78
2023/12/28 00:44:43;;;;;;;0.30;0.20;;;6.10;99.90;;;;;;5092022;28;20238;-81
2023/12/28 00:47:08;;;;;;;0.30;0.20;;;6.00;99.90;;;;;;5090448;28;20185;-81
2023/12/28 00:49:34;;;;;;;0.30;0.20;;;6.10;99.90;;;;;;5090601;28;20197;-78
2023/12/28 00:52:00;;;;;;;0.30;0.20;;;6.00;99.90;;;;;;5091699;28;20336;-81
2023/12/28 00:54:26;;;;;;;0.30;0.20;;;6.00;99.90;;;;;;5091956;28;20200;-81
2023/12/28 00:56:51;;;;;;;0.30;0.20;;;6.00;99.90;;;;;;5091653;28;20176;-80
2023/12/28 00:59:17;;;;;;;1.23;1.23;;;6.00;99.90;;;;;;5091987;28;20243;-81
2023/12/28 01:01:43;;;;;;;0.30;0.20;;;6.10;99.90;;;;;;5091659;28;20200;-78
2023/12/28 01:04:09;;;;;;;0.30;0.20;;;6.10;99.90;;;;;;5090292;28;20453;-81
2023/12/28 01:06:35;;;;;;;0.30;0.20;;;6.10;99.90;;;;;;5089790;28;20225;-81
2023/12/28 01:09:01;;;;;;;0.30;0.20;;;6.10;99.90;;;;;;5091385;28;20709;-81
2023/12/28 01:11:26;;;;;;;0.30;0.20;;;6.10;99.90;;;;;;5091466;28;20184;-79
2023/12/28 01:13:53;;;;;;;4.57;1.13;;;6.10;99.90;;;;;;5091745;28;20192;-80
2023/12/28 01:16:18;;;;;;;0.30;0.30;;;6.20;99.90;;;;;;5091603;28;20188;-78
2023/12/28 01:18:44;;;;;;;0.30;0.20;;;6.20;99.90;;;;;;5089570;28;20200;-78
2023/12/28 01:21:10;;;;;;;0.30;0.20;;;6.10;99.90;;;;;;5089467;28;20640;-80
2023/12/28 01:23:36;;;;;;;0.30;0.20;;;6.20;99.90;;;;;;5091667;28;20606;-81
2023/12/28 01:26:02;;;;;;;0.30;0.20;;;6.20;99.90;;;;;;5089674;28;20388;-81
2023/12/28 01:28:28;;;;;;;0.30;0.20;;;6.20;99.90;;;;;;5091765;28;20431;-80
2023/12/28 01:30:53;;;;;;;0.30;0.20;;;6.10;99.90;;;;;;5089393;28;20207;-79
2023/12/28 01:33:19;;;;;;;0.30;0.20;;;6.10;99.90;;;;;;5107069;28;20196;-78
2023/12/28 01:35:45;;;;;;;0.30;0.20;;;6.00;99.90;;;;;;5091247;28;20180;-81
2023/12/28 01:38:10;;;;;;;0.30;0.20;;;6.00;99.90;;;;;;5089866;28;20378;-81
2023/12/28 01:40:36;;;;;;;0.30;0.20;;;6.00;99.90;;;;;;5091233;28;20271;-82
2023/12/28 01:43:02;;;;;;;0.30;0.20;;;6.00;99.90;;;;;;5091093;28;20887;-81
2023/12/28 01:45:29;;;;;;;0.30;0.20;;;6.00;99.90;;;;;;5088965;28;20227;-79
2023/12/28 01:47:57;;;;;;;0.30;0.20;;;6.10;99.90;;;;;;5090817;28;20195;-78
2023/12/28 01:50:24;;;;;;;0.30;0.20;;;6.00;99.90;;;;;;5089431;28;20652;-81
2023/12/28 01:52:50;;;;;;;0.30;0.20;;;6.00;99.90;;;;;;5089371;28;20556;-81
2023/12/28 01:55:16;;;;;;;0.30;0.20;;;6.00;99.90;;;;;;5090793;28;20188;-81
2023/12/28 01:57:43;;;;;;;0.30;0.20;;;6.00;99.90;;;;;;5089471;28;20417;-81
2023/12/28 02:00:10;;;;;;;0.30;0.20;;;6.00;99.90;;;;;;5106129;28;20183;-81
2023/12/28 02:02:36;;;;;;;0.30;0.20;;;6.00;99.90;;;;;;5090800;28;20559;-81
2023/12/28 02:05:02;;;;;;;0.30;0.20;;;5.90;99.90;;;;;;5090485;28;20298;-81
2023/12/28 02:07:29;;;;;;;0.30;0.20;;;5.90;99.90;;;;;;5089922;28;20255;-78
2023/12/28 02:09:55;;;;;;;0.30;0.20;;;5.80;99.90;;;;;;5090114;28;20695;-78
2023/12/28 02:12:21;;;;;;;0.30;0.20;;;5.80;99.90;;;;;;5090326;28;20230;-77
2023/12/28 02:14:47;;;;;;;0.30;0.20;;;5.80;99.90;;;;;;5088957;28;20201;-80
2023/12/28 02:17:21;;;;;;;0.30;0.20;;;5.80;99.90;;;;;;5090674;28;20718;-78
2023/12/28 02:19:52;;;;;;;0.30;0.20;;;5.70;99.90;;;;;;5090221;28;20200;-78
2023/12/28 02:22:18;;;;;;;0.30;0.20;;;5.80;99.90;;;;;;5087766;28;20323;-80
2023/12/28 02:25:06;;;;;;;0.30;0.20;;;5.80;99.90;;;;;;5089340;28;20880;-78
2023/12/28 02:27:34;;;;;;;0.30;0.20;;;5.80;99.90;;;;;;5088678;28;20184;-79
2023/12/28 02:30:00;;;;;;;0.30;0.20;;;5.80;99.90;;;;;;5105778;28;20230;-81
2023/12/28 02:32:54;;;;;;;0.30;0.30;;;5.80;99.90;;;;;;5090122;28;20184;-78
2023/12/28 02:35:34;;;;;;;0.30;0.20;;;5.80;99.90;;;;;;5090308;28;20666;-81
2023/12/28 02:38:04;;;;;;;0.30;0.20;;;5.80;99.90;;;;;;5105869;28;20208;-81
2023/12/28 02:40:36;;;;;;;0.30;0.20;;;5.80;99.90;;;;;;5089973;28;20169;-81
2023/12/28 02:43:02;;;;;;;0.30;0.20;;;5.80;99.90;;;;;;5090347;28;20212;-78
2023/12/28 02:45:28;;;;;;;0.30;0.20;;;5.70;99.90;;;;;;5090309;28;20173;-80
2023/12/28 02:47:53;;;;;;;0.30;0.20;;;5.70;99.90;;;;;;5088283;28;20470;-78
2023/12/28 02:50:19;;;;;;;0.30;0.20;;;5.70;99.90;;;;;;5089967;28;20187;-79
2023/12/28 02:52:44;;;;;;;1.90;1.80;;;5.70;99.90;;;;;;5088412;28;20184;-81
2023/12/28 02:55:10;;;;;;;0.30;0.20;;;5.70;99.90;;;;;;5089774;28;20297;-78
2023/12/28 02:57:37;;;;;;;0.30;0.20;;;5.60;99.90;;;;;;5089960;28;20226;-81
2023/12/28 03:00:05;;;;;;;0.30;0.20;;;5.60;99.90;;;;;;5088268;28;20184;-81
2023/12/28 03:02:30;;;;;;;0.30;0.20;;;5.60;99.90;;;;;;5088093;28;20427;-81
2023/12/28 03:04:56;;;;;;;0.30;0.20;;;5.60;99.90;;;;;;5089846;28;20539;-78
2023/12/28 03:07:22;;;;;;;0.30;0.30;;;5.50;99.90;;;;;;5089241;28;20181;-81
2023/12/28 03:09:48;;;;;;;0.30;0.30;;;5.50;99.90;;;;;;5089090;28;20620;-79
2023/12/28 03:12:15;;;;;;;0.30;0.30;;;5.50;99.90;;;;;;5104864;28;20400;-81
2023/12/28 03:14:41;;;;;;;0.30;0.30;;;5.50;99.90;;;;;;5089696;28;20192;-78
2023/12/28 03:17:07;;;;;;;0.30;0.20;;;5.50;99.90;;;;;;5087770;28;20676;-81
2023/12/28 03:19:32;;;;;;;0.30;0.30;;;5.50;99.90;;;;;;5089727;28;20189;-80
2023/12/28 03:21:58;;;;;;;0.30;0.20;;;5.50;99.90;;;;;;5086695;28;20579;-78
2023/12/28 03:24:23;;;;;;;0.30;0.30;;;5.50;99.90;;;;;;5089642;28;20307;-78
2023/12/28 03:26:49;;;;;;;0.30;0.20;;;5.50;99.90;;;;;;5088283;28;20180;-81
2023/12/28 03:29:16;;;;;;;0.30;0.20;;;5.50;99.90;;;;;;5088490;28;20196;-81
2023/12/28 03:31:42;;;;;;;0.30;0.20;;;5.50;99.90;;;;;;5089397;28;20702;-81
2023/12/28 03:34:07;;;;;;;0.30;0.20;;;5.50;99.90;;;;;;5088264;28;20535;-80
2023/12/28 03:36:33;;;;;;;0.30;0.20;;;5.50;99.90;;;;;;5089101;28;20403;-81
2023/12/28 03:38:59;;;;;;;0.30;0.20;;;5.50;99.90;;;;;;5089753;28;20201;-78
2023/12/28 03:41:24;;;;;;;0.30;0.20;;;5.50;99.90;;;;;;5089070;28;20215;-80
2023/12/28 03:43:50;;;;;;;0.30;0.20;;;5.50;99.90;;;;;;5089685;28;20265;-78
2023/12/28 03:46:16;;;;;;;0.30;0.30;;;5.50;99.90;;;;;;5089301;28;20187;-81
2023/12/28 03:48:41;;;;;;;0.30;0.20;;;5.50;99.90;;;;;;5089817;28;20782;-81
2023/12/28 03:51:07;;;;;;;0.30;0.23;;;5.40;99.90;;;;;;5087468;28;20351;-81
2023/12/28 03:53:33;;;;;;;0.30;0.20;;;5.40;99.90;;;;;;5089933;28;20505;-78
2023/12/28 03:55:59;;;;;;;0.30;0.30;;;5.30;99.90;;;;;;5088904;28;20177;-78
2023/12/28 03:58:24;;;;;;;0.30;0.20;;;5.30;99.90;;;;;;5089579;28;20665;-81
2023/12/28 04:00:50;;;;;;;0.30;0.20;;;5.20;99.90;;;;;;5087431;28;20191;-77
2023/12/28 04:03:16;;;;;;;0.30;0.20;;;5.20;99.90;;;;;;5088232;28;20281;-78
2023/12/28 04:05:43;;;;;;;0.30;0.30;;;5.20;99.90;;;;;;5088904;28;20311;-79
2023/12/28 04:08:09;;;;;;;0.30;0.30;;;5.20;99.90;;;;;;5090967;28;20517;-78
2023/12/28 04:10:37;;;;;;;0.30;0.20;;;5.10;99.90;;;;;;5092118;28;20692;-78
2023/12/28 04:13:03;;;;;;;0.30;0.30;;;5.10;99.90;;;;;;5092721;28;20275;-78
2023/12/28 04:15:30;;;;;;;0.30;0.30;;;5.00;99.90;;;;;;5092599;28;20267;-81
2023/12/28 04:17:56;;;;;;;0.30;0.20;;;5.10;99.90;;;;;;5091280;28;20192;-78
2023/12/28 04:20:22;;;;;;;0.30;0.30;;;5.00;99.90;;;;;;5092533;28;20228;-81
2023/12/28 04:22:47;;;;;;;0.30;0.20;;;5.00;99.90;;;;;;5092534;28;20361;-77
2023/12/28 04:25:13;;;;;;;0.30;0.20;;;5.00;99.90;;;;;;5091663;28;20169;-78
2023/12/28 04:27:39;;;;;;;0.30;0.30;;;5.00;99.90;;;;;;5092487;28;20263;-77
2023/12/28 04:30:06;;;;;;;0.30;0.20;;;5.00;99.90;;;;;;5092199;28;20433;-79
2023/12/28 04:32:34;;;;;;;0.30;0.20;;;4.90;99.90;;;;;;5092103;28;20187;-81
2023/12/28 04:35:00;;;;;;;0.30;0.20;;;5.00;99.90;;;;;;5092221;28;20177;-80
2023/12/28 04:37:27;;;;;;;0.30;0.23;;;4.90;99.90;;;;;;5108337;28;20192;-81
2023/12/28 04:39:55;;;;;;;0.30;0.20;;;4.90;99.90;;;;;;5092222;28;20176;-81
2023/12/28 04:42:21;;;;;;;0.30;0.30;;;4.90;99.90;;;;;;5092003;28;20212;-78
2023/12/28 04:44:46;;;;;;;0.30;0.20;;;4.90;99.90;;;;;;5092088;28;20192;-78
2023/12/28 04:47:12;;;;;;;6.03;5.80;;;4.90;99.90;;;;;;5091967;28;20371;-78
2023/12/28 04:49:38;;;;;;;0.30;0.20;;;4.90;99.90;;;;;;5091987;28;20199;-81
2023/12/28 04:52:04;;;;;;;0.30;0.20;;;4.90;99.90;;;;;;5091780;28;20543;-81
2023/12/28 04:54:30;;;;;;;0.30;0.20;;;4.80;99.90;;;;;;5091903;28;20669;-78
2023/12/28 04:56:55;;;;;;;0.30;0.20;;;4.80;99.90;;;;;;5090630;28;20187;-81
2023/12/28 04:59:21;;;;;;;0.30;0.20;;;4.80;99.90;;;;;;5092127;28;20410;-78
2023/12/28 05:01:47;;;;;;;0.30;0.20;;;4.80;99.90;;;;;;5107569;28;20212;-78
2023/12/28 05:04:12;;;;;;;0.30;0.20;;;4.70;99.90;;;;;;5092255;28;20691;-79
2023/12/28 05:06:38;;;;;;;0.30;0.20;;;4.70;99.90;;;;;;5090022;28;20271;-81
2023/12/28 05:09:04;;;;;;;0.50;0.50;;;4.70;99.90;;;;;;5091882;28;20210;-81
2023/12/28 05:11:30;;;;;;;0.30;0.30;;;4.70;99.90;;;;;;5089862;28;20185;-78
2023/12/28 05:13:56;;;;;;;0.30;0.20;;;4.60;99.90;;;;;;5090349;28;20720;-78
2023/12/28 05:16:22;;;;;;;0.30;0.20;;;4.60;99.90;;;;;;5091364;28;20433;-80
2023/12/28 05:18:48;;;;;;;0.30;0.20;;;4.60;99.90;;;;;;5090490;28;20202;-80
2023/12/28 05:21:14;;;;;;;0.30;0.30;;;4.60;99.90;;;;;;5072878;28;21033;-78
2023/12/28 05:23:40;;;;;;;0.30;0.30;;;4.50;99.90;;;;;;5091426;28;20283;-81
2023/12/28 05:26:06;;;;;;;0.30;0.20;;;4.50;99.90;;;;;;5090743;28;20287;-81
2023/12/28 05:28:32;;;;;;;0.30;0.30;;;4.50;99.90;;;;;;5091152;28;20275;-81
2023/12/28 05:30:58;;;;;;;0.30;0.30;;;4.50;99.90;;;;;;5089826;28;20184;-81
2023/12/28 05:33:25;;;;;;;0.30;0.30;;;4.50;99.90;;;;;;5091583;28;20536;-81
2023/12/28 05:35:51;;;;;;;0.30;0.30;;;4.50;99.90;;;;;;5089607;28;20699;-78
2023/12/28 05:38:17;;;;;;;0.30;0.30;;;4.50;99.90;;;;;;5091521;28;20204;-81
2023/12/28 05:40:44;;;;;;;0.30;0.30;;;4.40;99.90;;;;;;5089400;28;20468;-79
2023/12/28 05:43:11;;;;;;;0.30;0.30;;;4.40;99.90;;;;;;5089594;28;20255;-78
2023/12/28 05:45:36;;;;;;;0.30;0.30;;;4.30;99.90;;;;;;5090792;28;20180;-77
2023/12/28 05:48:03;;;;;;;0.30;0.30;;;4.30;99.90;;;;;;5091070;28;20660;-78
2023/12/28 05:50:28;;;;;;;0.30;0.20;;;4.40;99.90;;;;;;5090879;28;20376;-80
2023/12/28 05:52:54;;;;;;;0.30;0.30;;;4.40;99.90;;;;;;5090772;28;20207;-80
2023/12/28 05:55:21;;;;;;;0.30;0.20;;;4.40;99.90;;;;;;5089324;28;20184;-77
2023/12/28 05:57:47;;;;;;;0.30;0.30;;;4.40;99.90;;;;;;5090742;28;20200;-78
2023/12/28 06:00:14;;;;;;;0.30;0.28;;;4.40;99.90;;;;;;5090874;28;20176;-78
2023/12/28 06:02:40;;;;;;;0.30;0.20;;;4.40;99.90;;;;;;5089132;28;20242;-78
2023/12/28 06:05:06;;;;;;;0.30;0.20;;;4.40;99.90;;;;;;5090418;28;20259;-77
2023/12/28 06:07:32;;;;;;;0.30;0.27;;;4.40;99.90;;;;;;5090448;28;20272;-79
2023/12/28 06:09:57;;;;;;;0.30;0.30;;;4.50;99.90;;;;;;5089976;28;20368;-78
2023/12/28 06:12:23;;;;;;;2.00;2.00;;;4.50;99.90;;;;;;5089890;28;20700;-79
2023/12/28 06:14:49;;;;;;;0.30;0.20;;;4.50;99.90;;;;;;5089134;28;20189;-79
2023/12/28 06:17:18;;;;;;;0.30;0.20;;;4.50;99.90;;;;;;5090498;28;20398;-78
2023/12/28 06:19:44;;;;;;;0.30;0.20;;;4.60;99.90;;;;;;5088945;28;20200;-78
2023/12/28 06:22:10;;;;;;;0.30;0.30;;;4.60;99.90;;;;;;5089733;28;20281;-81
2023/12/28 06:24:40;;;;;;;0.30;0.30;;;4.60;99.90;;;;;;5088123;28;20807;-81
2023/12/28 06:27:06;;;;;;;0.30;0.20;;;4.60;99.90;;;;;;5089867;28;20233;-78
2023/12/28 06:29:32;;;;;;;0.30;0.20;;;4.70;99.90;;;;;;5088868;28;20677;-79
2023/12/28 06:31:58;;;;;;;0.30;0.30;;;4.70;99.90;;;;;;5088366;28;20210;-80
2023/12/28 06:34:24;;;;;;;0.30;0.20;;;4.70;99.90;;;;;;5090207;28;20192;-81
2023/12/28 06:36:49;;;;;;;0.30;0.30;;;4.70;99.90;;;;;;5089907;28;20173;-79
2023/12/28 06:39:15;;;;;;;0.30;0.30;;;4.70;99.90;;;;;;5090275;28;20192;-81
2023/12/28 06:41:41;;;;;;;0.30;0.20;;;4.70;99.90;;;;;;5089737;28;20211;-80
2023/12/28 06:44:07;;;;;;;0.30;0.30;;;4.70;99.90;;;;;;5088449;28;20203;-78
2023/12/28 06:46:32;;;;;;;0.30;0.20;;;4.70;99.90;;;;;;5088614;28;20179;-78
2023/12/28 06:48:58;;;;;;;0.30;0.20;;;4.70;99.90;;;;;;5088491;28;20487;-78
2023/12/28 06:51:25;;;;;;;0.30;0.20;;;4.70;99.90;;;;;;5089650;28;20173;-81
2023/12/28 06:53:51;;;;;;;0.30;0.20;;;4.70;99.90;;;;;;5088552;28;20196;-78
2023/12/28 06:56:17;;;;;;;0.30;0.20;;;4.80;99.90;;;;;;5089486;28;20177;-81
2023/12/28 06:58:43;;;;;;;0.30;0.30;;;4.80;99.90;;;;;;5089745;28;20233;-78
2023/12/28 07:01:08;;;;;;;0.30;0.20;;;4.80;99.90;;;;;;5087915;28;20249;-79
2023/12/28 07:03:34;;;;;;;0.30;0.30;;;4.80;99.90;;;;;;5088563;28;20527;-78
2023/12/28 07:06:00;;;;;;;0.30;0.20;;;4.80;99.90;;;;;;5087035;28;20424;-78
2023/12/28 07:08:26;;;;;;;0.30;0.20;;;4.80;99.90;;;;;;5089019;28;20189;-78
2023/12/28 07:10:52;;;;;;;0.30;0.30;;;4.90;99.90;;;;;;5086224;28;20399;-79
2023/12/28 07:13:17;;;;;;;0.30;0.20;;;4.90;99.90;;;;;;5087998;28;20200;-81
2023/12/28 07:15:43;;;;;;;0.30;0.30;;;4.90;99.90;;;;;;5087708;28;20207;-81
2023/12/28 07:18:09;;;;;;;0.30;0.20;;;4.90;99.90;;;;;;5089071;28;20204;-78
2023/12/28 07:20:35;;;;;;;0.30;0.20;;;4.90;99.90;;;;;;5088347;28;20282;-77
2023/12/28 07:23:00;;;;;;;0.30;0.30;;;4.90;99.90;;;;;;5087677;28;20830;-81
2023/12/28 07:25:26;;;;;;;0.30;0.20;;;4.90;99.90;;;;;;5088632;28;20625;-78
2023/12/28 07:27:52;;;;;;;0.30;0.20;;;4.90;99.90;;;;;;5085973;28;20196;-81
2023/12/28 07:30:17;;;;;;;0.30;0.30;;;5.00;99.90;;;;;;5087541;28;20226;-81
2023/12/28 07:32:44;;;;;;;1.50;1.50;;;5.20;99.90;;;;;;5087431;28;20203;-80
2023/12/28 07:35:10;;;;;;;0.30;0.30;;;5.40;99.90;;;;;;5085732;28;20193;-81
2023/12/28 07:37:36;;;;;;;0.30;0.30;;;5.80;99.90;;;;;;5087679;28;20169;-78
2023/12/28 07:40:03;;;;;;;0.30;0.30;;;6.10;99.90;;;;;;5085880;28;20718;-80
2023/12/28 07:42:29;;;;;;;0.30;0.30;;;6.50;99.90;;;;;;5089063;28;20303;-78
2023/12/28 07:44:55;;;;;;;0.67;0.67;;;6.90;99.90;;;;;;5091858;28;20271;-80
2023/12/28 07:47:20;;;;;;;0.30;0.20;;;7.30;99.90;;;;;;5092042;28;20758;-78
2023/12/28 07:49:46;;;;;;;0.30;0.20;;;7.60;99.90;;;;;;5093240;28;20231;-78
2023/12/28 07:52:12;;;;;;;0.30;0.30;;;7.90;99.90;;;;;;5091421;28;20176;-78
2023/12/28 07:54:37;;;;;;;1.50;1.40;;;8.20;99.90;;;;;;5093365;28;20279;-80
2023/12/28 07:57:03;;;;;;;0.30;0.20;;;8.70;99.90;;;;;;5092545;28;20298;-78
2023/12/28 07:59:29;;;;;;;6.32;5.75;;;9.20;99.90;;;;;;5092834;28;20197;-78
2023/12/28 08:01:55;;;;;;;0.40;0.40;;;9.80;99.90;;;;;;5091283;28;20677;-79
2023/12/28 08:04:21;;;;;;;19.88;9.13;;;10.30;99.90;;;;;;5091717;28;20200;-78
2023/12/28 08:06:47;;;;;;;0.40;0.30;;;10.90;99.90;;;;;;5091309;28;20234;-82
2023/12/28 08:09:12;;;;;;;1.27;1.27;;;11.40;99.90;;;;;;5091535;28;20464;-79
2023/12/28 08:11:38;;;;;;;0.87;0.87;;;12.00;99.90;;;;;;5092283;28;20230;-82
2023/12/28 08:14:05;;;;;;;0.40;0.30;;;12.50;99.90;;;;;;5092685;28;20184;-81
2023/12/28 08:16:31;;;;;;;0.40;0.33;;;13.00;99.90;;;;;;5091032;28;20439;-79
2023/12/28 08:18:57;;;;;;;0.43;0.43;;;13.40;99.90;;;;;;5093102;28;20519;-80
2023/12/28 08:21:23;;;;;;;1.20;1.20;;;13.80;99.90;;;;;;5092034;28;20330;-79
2023/12/28 08:23:49;;;;;;;0.50;0.50;;;14.20;99.90;;;;;;5092876;28;20853;-82
2023/12/28 08:26:15;;;;;;;0.80;0.80;;;14.40;99.90;;;;;;5090739;28;20413;-81
2023/12/28 08:28:41;;;;;;;3.13;2.93;;;14.60;99.90;;;;;;5091754;28;20196;-79
2023/12/28 08:31:08;;;;;;;2.73;2.60;;;14.80;99.90;;;;;;5092041;28;20177;-79
2023/12/28 08:33:35;;;;;;;0.60;0.60;;;14.70;99.90;;;;;;5091378;28;20849;-81
2023/12/28 08:36:03;;;;;;;1.67;1.57;;;14.60;99.90;;;;;;5090453;28;20416;-82
2023/12/28 08:38:29;;;;;;;3.73;3.43;;;14.60;99.90;;;;;;5091042;28;20449;-82
2023/12/28 08:40:55;;;;;;;1.37;1.37;;;14.60;99.90;;;;;;5091808;28;20947;-79
2023/12/28 08:43:20;;;;;;;0.40;0.30;;;14.80;99.90;;;;;;5092566;28;20215;-82
2023/12/28 08:45:46;;;;;;;0.40;0.30;;;15.00;99.90;;;;;;5091009;28;20173;-80
2023/12/28 08:48:12;;;;;;;1.27;1.27;;;15.40;99.90;;;;;;5091636;28;20257;-82
2023/12/28 08:50:37;;;;;;;0.50;0.50;;;15.90;99.90;;;;;;5088548;28;20520;-79
2023/12/28 08:53:03;;;;;;;0.40;0.30;;;16.50;99.90;;;;;;5090052;28;20375;-81
2023/12/28 08:55:29;;;;;;;9.93;3.80;;;17.10;99.90;;;;;;5088826;28;20180;-79
2023/12/28 08:57:54;;;;;;;1.20;1.10;;;17.60;99.90;;;;;;5089943;28;20230;-81
2023/12/28 09:00:20;;;;;;;1.30;1.30;;;17.90;99.90;;;;;;5088806;28;20185;-79
2023/12/28 09:02:46;;;;;;;1.23;0.53;;;18.30;99.90;;;;;;5090291;28;20218;-80
2023/12/28 09:05:12;;;;;;;19.50;15.80;;;18.50;99.90;;;;;;5090376;28;20182;-79
2023/12/28 09:07:42;;;;;;;0.53;0.50;;;18.80;98.90;;;;;;5090615;28;20186;-80
2023/12/28 09:10:10;;;;;;;1.23;1.13;;;19.00;98.40;;;;;;5091587;28;20299;-80
2023/12/28 09:12:36;;;;;;;3.97;2.87;;;19.10;98.00;;;;;;5091605;28;20480;-80
2023/12/28 09:15:05;;;;;;;1.17;1.10;;;19.20;97.40;;;;;;5090076;28;21157;-80
2023/12/28 09:17:31;;;;;;;4.17;3.97;;;19.40;97.00;;;;;;5090172;28;20607;-82
2023/12/28 09:19:58;;;;;;;0.50;0.50;;;19.50;96.80;;;;;;5091556;28;20431;-80
2023/12/28 09:22:24;;;;;;;0.40;0.30;;;19.70;96.40;;;;;;5089875;28;20492;-82
2023/12/28 09:24:49;;;;;;;2.07;1.97;;;19.90;96.00;;;;;;5091450;28;20427;-81
2023/12/28 09:27:15;;;;;;;1.70;1.23;;;20.00;95.90;;;;;;5090394;28;20423;-82
2023/12/28 09:29:41;;;;;;;0.60;0.60;;;20.20;95.80;;;;;;5091334;28;20835;-80
2023/12/28 09:32:07;;;;;;;1.63;1.60;;;20.40;95.20;;;;;;5089047;28;20197;-80
2023/12/28 09:34:33;;;;;;;0.70;0.70;;;20.60;94.80;;;;;;5091172;28;20196;-80
2023/12/28 09:36:58;;;;;;;0.40;0.40;;;20.90;94.60;;;;;;5089680;28;20188;-80
2023/12/28 09:39:25;;;;;;;1.33;1.30;;;21.20;94.10;;;;;;5088202;28;20445;-80
2023/12/28 09:41:59;;;;;;;0.40;0.30;;;21.50;93.50;;;;;;5090507;28;20208;-80
2023/12/28 09:44:25;;;;;;;0.70;0.70;;;21.80;93.10;;;;;;5089618;28;20432;-80
2023/12/28 09:46:53;;;;;;;1.30;1.20;;;21.90;92.70;;;;;;5090281;28;20417;-80
2023/12/28 09:49:21;;;;;;;3.43;2.83;;;21.90;92.90;;;;;;5090841;28;20520;-79
2023/12/28 09:51:47;;;;;;;1.70;1.60;;;22.00;91.90;;;;;;5091035;28;20937;-82
2023/12/28 09:54:13;;;;;;;5.57;5.13;;;21.90;91.60;;;;;;5091002;28;21055;-80
2023/12/28 09:56:40;;;;;;;0.93;0.93;;;21.80;91.80;;;;;;5090331;28;20397;-80
2023/12/28 09:59:07;;;;;;;4.33;2.60;;;21.60;91.90;;;;;;5090497;28;20455;-80
2023/12/28 10:01:36;;;;;;;2.20;1.90;;;21.50;92.10;;;;;;5088741;28;20499;-79
2023/12/28 10:04:06;;;;;;;0.40;0.40;;;21.40;92.70;;;;;;5088679;28;20999;-80
2023/12/28 10:06:32;;;;;;;3.53;2.87;;;21.20;92.00;;;;;;5087995;28;20527;-80
2023/12/28 10:08:59;;;;;;;1.70;1.60;;;21.00;92.40;;;;;;5088197;28;20962;-82
2023/12/28 10:11:26;;;;;;;8.17;2.43;;;20.60;92.40;;;;;;5088008;28;20184;-79
2023/12/28 10:13:53;;;;;;;0.80;0.80;;;20.20;92.90;;;;;;5086970;28;20441;-81
2023/12/28 10:16:19;;;;;;;1.43;1.33;;;19.90;93.60;;;;;;5086359;28;20417;-82
2023/12/28 10:18:45;;;;;;;0.40;0.20;;;19.40;93.50;;;;;;5088347;28;20433;-81
2023/12/28 10:21:11;;;;;;;0.40;0.30;;;19.00;94.40;;;;;;5088557;28;20759;-81
2023/12/28 10:23:38;;;;;;;1.13;1.13;;;18.50;94.80;;;;;;5090117;28;20445;-79
2023/12/28 10:26:08;;;;;;;0.60;0.60;;;18.10;95.30;;;;;;5089738;28;20477;-79
2023/12/28 10:28:40;;;;;;;1.60;1.30;;;17.60;95.90;;;;;;5090591;28;20982;-79
2023/12/28 10:31:07;;;;;;;0.40;0.30;;;17.30;96.40;;;;;;5088685;28;20839;-79
2023/12/28 10:33:36;;;;;;;16.87;11.27;;;17.10;96.90;;;;;;5088860;28;20460;-82
2023/12/28 10:36:06;;;;;;;5.03;4.73;;;16.80;97.40;;;;;;5088637;28;20415;-79
2023/12/28 10:38:36;;;;;;;1.83;1.73;;;16.70;97.90;;;;;;5090396;28;20909;-81
2023/12/28 10:41:07;;;;;;;0.30;0.20;;;16.50;98.10;;;;;;5088144;28;20726;-79
2023/12/28 10:43:43;;;;;;;0.73;0.73;;;16.30;98.90;;;;;;5090508;28;20442;-81
2023/12/28 10:46:09;;;;;;;0.40;0.20;;;16.10;98.90;;;;;;5089779;28;20413;-81
2023/12/28 10:48:39;;;;;;;0.40;0.40;;;16.00;99.00;;;;;;5088809;28;21039;-82
2023/12/28 10:51:10;;;;;;;0.50;0.50;;;15.90;99.60;;;;;;5088453;28;20413;-81
2023/12/28 10:53:50;;;;;;;0.90;0.80;;;15.80;99.90;;;;;;5090254;28;20429;-82
2023/12/28 10:56:31;;;;;;;0.93;0.90;;;15.80;99.90;;;;;;5088388;28;20447;-79
2023/12/28 10:59:16;;;;;;;0.53;0.47;;;15.70;99.90;;;;;;5089966;28;20425;-80
2023/12/28 11:01:43;;;;;;;0.40;0.30;;;15.50;99.90;;;;;;5088285;28;20495;-81
2023/12/28 11:04:27;;;;;;;0.40;0.40;;;15.30;99.90;;;;;;5089313;28;20861;-81
2023/12/28 11:06:53;;;;;;;0.40;0.30;;;15.30;99.90;;;;;;5079317;28;20467;-81
2023/12/28 11:09:21;;;;;;;1.00;1.00;;;15.20;99.90;;;;;;5090251;28;20429;-81
2023/12/28 11:11:51;;;;;;;0.40;0.30;;;15.10;99.90;;;;;;5087484;28;20421;-79
2023/12/28 11:14:18;;;;;;;0.40;0.30;;;15.10;99.90;;;;;;5089271;28;20436;-78
2023/12/28 11:16:44;;;;;;;0.30;0.20;;;15.00;99.90;;;;;;5087586;28;20421;-81
2023/12/28 11:19:11;;;;;;;0.47;0.43;;;14.90;99.90;;;;;;5092231;28;20539;-79
2023/12/28 11:21:37;;;;;;;1.43;1.40;;;14.90;99.90;;;;;;5093457;28;20495;-79
2023/12/28 11:24:04;;;;;;;0.30;0.20;;;14.90;99.90;;;;;;5094125;28;20795;-79
2023/12/28 11:26:30;;;;;;;2.30;2.20;;;14.90;99.90;;;;;;5093329;28;20504;-81
2023/12/28 11:29:03;;;;;;;1.00;1.00;;;14.90;99.90;;;;;;5092384;28;20448;-79
2023/12/28 11:31:36;;;;;;;1.63;1.63;;;14.90;99.90;;;;;;5093436;28;20409;-81
2023/12/28 11:34:03;;;;;;;0.50;0.50;;;15.00;99.90;;;;;;5092755;28;20846;-79
2023/12/28 11:36:40;;;;;;;0.30;0.20;;;15.00;99.90;;;;;;5092089;28;20420;-81
2023/12/28 11:39:06;;;;;;;2.87;2.40;;;15.10;99.90;;;;;;5092387;28;20535;-81
2023/12/28 11:41:33;;;;;;;0.30;0.20;;;15.30;99.90;;;;;;5091899;28;21015;-80
2023/12/28 11:44:04;;;;;;;0.37;0.20;;;15.40;99.90;;;;;;5093791;28;20509;-79
2023/12/28 11:46:30;;;;;;;0.67;0.67;;;15.50;99.90;;;;;;5093058;28;20406;-79
2023/12/28 11:49:12;;;;;;;0.30;0.20;;;15.50;99.90;;;;;;5092070;28;20456;-79
2023/12/28 11:51:39;;;;;;;0.40;0.30;;;15.60;99.90;;;;;;5091563;28;20424;-81
2023/12/28 11:54:06;;;;;;;0.30;0.20;;;15.70;99.90;;;;;;5091750;28;20475;-79
2023/12/28 11:56:35;;;;;;;0.40;0.27;;;15.80;99.90;;;;;;5092763;28;20974;-79
2023/12/28 11:59:01;;;;;;;0.30;0.20;;;15.90;99.90;;;;;;5093407;28;20440;-82
2023/12/28 12:01:26;;;;;;;0.30;0.20;;;16.00;99.90;;;;;;5091865;28;20467;-81
2023/12/28 12:03:53;;;;;;;0.47;0.47;;;15.90;99.90;;;;;;5093002;28;20469;-81
2023/12/28 12:06:19;;;;;;;0.30;0.30;;;15.90;99.90;;;;;;5091464;28;20633;-80
2023/12/28 12:08:46;;;;;;;0.30;0.20;;;16.00;99.90;;;;;;5093299;28;20440;-81
2023/12/28 12:11:12;;;;;;;0.60;0.60;;;16.00;99.90;;;;;;5092510;28;20780;-79
2023/12/28 12:13:38;;;;;;;1.83;1.17;;;16.00;99.90;;;;;;5093222;28;20883;-81
2023/12/28 12:16:05;;;;;;;0.30;0.20;;;15.90;99.90;;;;;;5092262;28;20457;-79
2023/12/28 12:18:35;;;;;;;1.47;1.37;;;15.90;99.90;;;;;;5091429;28;20436;-81
2023/12/28 12:21:01;;;;;;;0.30;0.30;;;15.90;99.90;;;;;;5092195;28;20464;-79
2023/12/28 12:23:27;;;;;;;0.30;0.20;;;15.90;99.90;;;;;;5091482;28;20480;-79
2023/12/28 12:25:53;;;;;;;0.30;0.30;;;16.00;99.90;;;;;;5091101;28;20501;-79
2023/12/28 12:28:19;;;;;;;0.30;0.20;;;16.00;99.90;;;;;;5092020;28;20319;-81
2023/12/28 12:30:54;;;;;;;0.30;0.20;;;16.00;99.90;;;;;;5090814;28;20246;-80
2023/12/28 12:33:21;;;;;;;0.30;0.20;;;16.10;99.90;;;;;;5090611;28;20650;-79
2023/12/28 12:35:47;;;;;;;0.30;0.20;;;16.20;99.90;;;;;;5089391;28;20478;-81
2023/12/28 12:38:12;;;;;;;8.97;2.87;;;16.20;99.90;;;;;;5092490;28;20787;-79
2023/12/28 12:40:39;;;;;;;0.30;0.20;;;16.10;99.90;;;;;;5092136;28;20697;-79
2023/12/28 12:43:08;;;;;;;0.30;0.20;;;16.10;99.90;;;;;;5092060;28;20215;-79
2023/12/28 12:45:36;;;;;;;0.30;0.20;;;16.10;99.90;;;;;;5090401;28;20451;-81
2023/12/28 12:48:03;;;;;;;0.30;0.20;;;15.90;99.90;;;;;;5089147;28;20446;-81
2023/12/28 12:50:29;;;;;;;0.30;0.30;;;15.80;99.90;;;;;;5090216;28;20773;-82